Time;durP1;ratioP1;P1;durP2;ratioP2;P2;SDS_P1;SDS_P2;PMS_P1;PMS_P2;Temp;Humidity;BMP_temperature;BMP_pressure;BME280_temperature;BME280_humidity;BME280_pressure;Samples;Min_cycle;Max_cycle;Signal;HPM_P1;HPM_P2
2023/07/12 00:00:04;;;;;;;6.20;4.00;;;;;;;;;;108002;1276;40124;-42
2023/07/12 00:03:24;;;;;;;5.40;4.10;;;;;;;;;;108002;1264;44151;-41
2023/07/12 00:06:22;;;;;;;5.90;4.00;;;;;;;;;;107971;1274;39841;-41
2023/07/12 00:09:17;;;;;;;5.80;4.20;;;;;;;;;;107967;1276;38391;-40
2023/07/12 00:12:13;;;;;;;6.10;4.30;;;;;;;;;;107942;1269;39852;-41
2023/07/12 00:15:12;;;;;;;5.80;4.10;;;;;;;;;;108048;1263;46562;-41
2023/07/12 00:18:11;;;;;;;6.60;4.30;;;;;;;;;;108083;1274;41895;-42
2023/07/12 00:20:58;;;;;;;6.00;4.10;;;;;;;;;;104111;1263;38825;-40
2023/07/12 00:23:54;;;;;;;6.20;4.60;;;;;;;;;;108013;1265;39695;-40
2023/07/12 00:26:49;;;;;;;6.00;4.40;;;;;;;;;;107967;1276;39766;-41
2023/07/12 00:29:43;;;;;;;5.40;4.10;;;;;;;;;;108007;1265;41684;-40
2023/07/12 00:32:37;;;;;;;6.50;4.30;;;;;;;;;;107998;1260;39490;-40
2023/07/12 00:35:34;;;;;;;6.20;4.30;;;;;;;;;;107936;1264;45277;-41
2023/07/12 00:38:31;;;;;;;6.00;4.30;;;;;;;;;;107997;1275;40320;-42
2023/07/12 00:41:54;;;;;;;6.10;4.30;;;;;;;;;;108008;1275;41960;-42
2023/07/12 00:44:55;;;;;;;6.50;4.30;;;;;;;;;;107994;1262;39717;-41
2023/07/12 00:47:51;;;;;;;6.70;4.40;;;;;;;;;;108076;1270;39703;-41
2023/07/12 00:50:48;;;;;;;6.10;4.30;;;;;;;;;;108081;1275;41143;-40
2023/07/12 00:53:46;;;;;;;6.90;4.90;;;;;;;;;;108038;1275;40599;-42
2023/07/12 00:56:41;;;;;;;6.10;4.50;;;;;;;;;;107966;1265;47027;-41
2023/07/12 00:59:35;;;;;;;6.00;4.50;;;;;;;;;;107988;1269;40668;-40
2023/07/12 01:02:35;;;;;;;6.00;4.70;;;;;;;;;;107965;1276;39968;-42
2023/07/12 01:05:31;;;;;;;6.00;4.40;;;;;;;;;;108028;1265;40920;-40
2023/07/12 01:08:26;;;;;;;6.20;4.30;;;;;;;;;;108144;1272;39556;-40
2023/07/12 01:11:26;;;;;;;6.50;4.40;;;;;;;;;;108066;1275;38503;-41
2023/07/12 01:14:21;;;;;;;7.00;4.80;;;;;;;;;;108098;1272;41029;-42
2023/07/12 01:17:24;;;;;;;6.20;4.60;;;;;;;;;;107970;1265;46605;-41
2023/07/12 01:20:19;;;;;;;6.70;4.80;;;;;;;;;;108029;1264;39549;-40
2023/07/12 01:23:13;;;;;;;5.70;4.40;;;;;;;;;;108008;1266;38676;-40
2023/07/12 01:26:28;;;;;;;6.50;4.90;;;;;;;;;;108029;1265;40223;-45
2023/07/12 01:29:27;;;;;;;7.10;5.10;;;;;;;;;;108093;1274;40677;-39
2023/07/12 01:32:25;;;;;;;6.40;5.00;;;;;;;;;;108075;1269;39562;-41
2023/07/12 01:35:23;;;;;;;6.30;4.90;;;;;;;;;;108099;1266;38671;-40
2023/07/12 01:38:22;;;;;;;6.50;4.80;;;;;;;;;;107891;1265;45753;-41
2023/07/12 01:41:24;;;;;;;7.00;5.40;;;;;;;;;;107787;1263;174969;-43
2023/07/12 01:44:24;;;;;;;6.30;4.80;;;;;;;;;;107916;1276;39654;-41
2023/07/12 01:47:21;;;;;;;7.00;4.80;;;;;;;;;;107975;1262;38422;-40
2023/07/12 01:50:19;;;;;;;6.10;4.80;;;;;;;;;;108094;1262;39909;-41
2023/07/12 01:53:13;;;;;;;6.40;4.70;;;;;;;;;;108070;1275;42038;-41
2023/07/12 01:56:10;;;;;;;6.90;4.70;;;;;;;;;;108082;1262;39781;-42
2023/07/12 01:59:03;;;;;;;6.90;4.90;;;;;;;;;;107988;1265;45259;-40
2023/07/12 02:02:00;;;;;;;6.60;4.80;;;;;;;;;;108028;1266;39777;-41
2023/07/12 02:04:55;;;;;;;5.90;4.60;;;;;;;;;;108016;1269;40470;-41
2023/07/12 02:07:52;;;;;;;6.60;4.90;;;;;;;;;;108021;1274;39466;-40
2023/07/12 02:10:46;;;;;;;6.70;4.70;;;;;;;;;;108092;1275;38245;-41
2023/07/12 02:13:42;;;;;;;6.50;4.70;;;;;;;;;;108093;1260;40037;-40
2023/07/12 02:16:38;;;;;;;6.00;4.90;;;;;;;;;;108090;1272;40615;-49
2023/07/12 02:19:33;;;;;;;6.20;4.60;;;;;;;;;;107982;1266;46621;-43
2023/07/12 02:22:14;;;;;;;6.20;4.90;;;;;;;;;;108028;1275;39675;-41
2023/07/12 02:25:14;;;;;;;6.50;5.00;;;;;;;;;;108031;1276;41087;-41
2023/07/12 02:28:12;;;;;;;6.30;5.00;;;;;;;;;;108023;1260;40584;-42
2023/07/12 02:31:24;;;;;;;6.50;5.30;;;;;;;;;;108081;1275;39591;-40
2023/07/12 02:34:15;;;;;;;6.90;5.20;;;;;;;;;;108086;1260;38520;-42
2023/07/12 02:37:10;;;;;;;6.60;5.10;;;;;;;;;;108102;1276;39739;-40
2023/07/12 02:40:08;;;;;;;6.60;5.20;;;;;;;;;;107733;1265;175544;-40
2023/07/12 02:43:05;;;;;;;6.60;5.30;;;;;;;;;;107913;1277;39670;-40
2023/07/12 02:46:00;;;;;;;6.10;5.00;;;;;;;;;;107900;1276;38335;-40
2023/07/12 02:48:55;;;;;;;7.40;5.50;;;;;;;;;;107949;1265;39951;-39
2023/07/12 02:51:54;;;;;;;7.20;5.40;;;;;;;;;;107429;1272;891379;-42
2023/07/12 02:54:48;;;;;;;6.30;5.40;;;;;;;;;;108102;1260;40267;-42
2023/07/12 02:57:47;;;;;;;6.40;5.20;;;;;;;;;;108091;1275;39964;-44
2023/07/12 03:00:45;;;;;;;6.60;5.30;;;;;;;;;;107733;1265;175499;-41
2023/07/12 03:03:41;;;;;;;6.50;5.40;;;;;;;;;;107897;1276;40496;-41
2023/07/12 03:06:36;;;;;;;7.10;5.40;;;;;;;;;;107878;1265;40824;-41
2023/07/12 03:09:30;;;;;;;6.00;5.20;;;;;;;;;;107929;1266;38431;-44
2023/07/12 03:12:26;;;;;;;6.80;5.50;;;;;;;;;;108091;1266;39524;-40
2023/07/12 03:15:20;;;;;;;6.60;5.70;;;;;;;;;;108091;1275;40751;-41
2023/07/12 03:18:16;;;;;;;6.80;5.40;;;;;;;;;;108092;1270;39842;-43
2023/07/12 03:21:23;;;;;;;6.50;5.40;;;;;;;;;;107876;1266;44330;-41
2023/07/12 03:24:12;;;;;;;7.00;5.40;;;;;;;;;;107879;1266;39787;-41
2023/07/12 03:27:16;;;;;;;7.00;5.40;;;;;;;;;;107879;1266;40600;-40
2023/07/12 03:30:14;;;;;;;6.50;5.60;;;;;;;;;;107972;1260;39616;-42
2023/07/12 03:33:13;;;;;;;6.60;5.30;;;;;;;;;;108055;1272;38522;-42
2023/07/12 03:36:17;;;;;;;7.30;5.70;;;;;;;;;;108036;1267;39606;-39
2023/07/12 03:39:15;;;;;;;6.60;5.20;;;;;;;;;;107949;1266;175530;-41
2023/07/12 03:42:13;;;;;;;7.00;5.40;;;;;;;;;;107944;1265;46727;-42
2023/07/12 03:45:13;;;;;;;6.90;5.50;;;;;;;;;;107986;1266;38302;-40
2023/07/12 03:48:09;;;;;;;6.40;5.60;;;;;;;;;;107958;1272;39775;-40
2023/07/12 03:51:05;;;;;;;6.70;5.70;;;;;;;;;;108002;1264;42029;-41
2023/07/12 03:54:01;;;;;;;6.70;5.30;;;;;;;;;;108089;1273;39510;-41
2023/07/12 03:57:01;;;;;;;6.80;5.80;;;;;;;;;;108065;1266;38452;-41
2023/07/12 03:59:55;;;;;;;6.70;5.20;;;;;;;;;;108063;1273;39977;-42
2023/07/12 04:02:54;;;;;;;6.70;5.60;;;;;;;;;;107960;1260;47072;-41
2023/07/12 04:05:42;;;;;;;7.50;6.20;;;;;;;;;;108015;1275;39798;-45
2023/07/12 04:08:25;;;;;;;6.30;5.50;;;;;;;;;;107953;1276;38400;-41
2023/07/12 04:11:29;;;;;;;7.00;5.80;;;;;;;;;;107916;1260;39862;-43
2023/07/12 04:14:22;;;;;;;6.50;5.60;;;;;;;;;;107958;1276;40725;-40
2023/07/12 04:17:16;;;;;;;7.60;5.80;;;;;;;;;;107979;1276;39635;-40
2023/07/12 04:20:17;;;;;;;6.70;5.60;;;;;;;;;;107970;1276;38444;-41
2023/07/12 04:23:16;;;;;;;6.80;5.40;;;;;;;;;;107997;1269;39950;-41
2023/07/12 04:26:11;;;;;;;7.40;5.60;;;;;;;;;;108067;1276;40456;-41
2023/07/12 04:29:11;;;;;;;7.20;5.50;;;;;;;;;;108006;1276;175494;-44
2023/07/12 04:32:07;;;;;;;6.60;5.60;;;;;;;;;;107976;1263;39043;-42
2023/07/12 04:35:06;;;;;;;7.00;5.70;;;;;;;;;;107925;1276;40955;-40
2023/07/12 04:38:04;;;;;;;6.70;5.70;;;;;;;;;;107966;1266;42208;-40
2023/07/12 04:41:01;;;;;;;6.30;5.40;;;;;;;;;;107981;1261;40727;-44
2023/07/12 04:43:55;;;;;;;6.90;5.30;;;;;;;;;;107920;1267;44534;-41
2023/07/12 04:46:52;;;;;;;6.60;5.50;;;;;;;;;;107979;1276;39706;-42
2023/07/12 04:49:47;;;;;;;7.00;5.80;;;;;;;;;;108010;1270;40532;-40
2023/07/12 04:52:24;;;;;;;6.50;5.60;;;;;;;;;;107969;1260;40139;-41
2023/07/12 04:55:27;;;;;;;6.70;5.80;;;;;;;;;;108044;1275;40317;-41
2023/07/12 04:58:21;;;;;;;7.10;5.90;;;;;;;;;;107991;1272;39615;-41
2023/07/12 05:01:18;;;;;;;7.30;5.90;;;;;;;;;;108028;1265;40303;-41
2023/07/12 05:04:14;;;;;;;7.30;5.50;;;;;;;;;;107985;1264;40939;-41
2023/07/12 05:07:09;;;;;;;7.60;5.60;;;;;;;;;;108004;1276;38549;-45
2023/07/12 05:10:11;;;;;;;6.50;5.60;;;;;;;;;;108030;1275;39970;-41
2023/07/12 05:13:06;;;;;;;7.80;5.80;;;;;;;;;;107978;1265;42082;-40
2023/07/12 05:16:01;;;;;;;6.50;5.40;;;;;;;;;;108024;1266;41471;-41
2023/07/12 05:18:35;;;;;;;7.30;5.70;;;;;;;;;;108001;1276;39686;-41
2023/07/12 05:21:30;;;;;;;7.50;5.70;;;;;;;;;;108013;1272;39476;-40
2023/07/12 05:24:24;;;;;;;6.40;5.30;;;;;;;;;;107981;1273;40799;-41
2023/07/12 05:27:13;;;;;;;6.90;5.70;;;;;;;;;;107987;1274;39583;-40
2023/07/12 05:30:14;;;;;;;6.50;5.50;;;;;;;;;;108003;1275;39301;-41
2023/07/12 05:33:09;;;;;;;7.20;5.60;;;;;;;;;;107982;1261;39483;-42
2023/07/12 05:36:07;;;;;;;7.30;5.50;;;;;;;;;;108086;1277;40569;-40
2023/07/12 05:39:01;;;;;;;6.80;5.10;;;;;;;;;;108082;1262;39639;-38
2023/07/12 05:41:42;;;;;;;7.10;5.40;;;;;;;;;;108082;1277;38661;-37
2023/07/12 05:44:39;;;;;;;7.40;5.30;;;;;;;;;;108016;1263;39922;-43
2023/07/12 05:47:34;;;;;;;6.40;4.90;;;;;;;;;;108047;1270;40582;-40
2023/07/12 05:50:28;;;;;;;6.50;5.10;;;;;;;;;;108021;1274;40930;-41
2023/07/12 05:53:22;;;;;;;6.40;5.30;;;;;;;;;;107992;1271;38381;-40
2023/07/12 05:56:00;;;;;;;7.00;5.20;;;;;;;;;;108107;1263;39593;-42
2023/07/12 05:58:55;;;;;;;6.60;5.10;;;;;;;;;;108048;1276;41890;-41
2023/07/12 06:01:30;;;;;;;6.20;5.00;;;;;;;;;;108073;1267;39620;-39
2023/07/12 06:04:08;;;;;;;6.20;5.10;;;;;;;;;;107984;1277;38429;-41
2023/07/12 06:07:02;;;;;;;6.50;5.00;;;;;;;;;;108027;1276;39838;-42
2023/07/12 06:09:36;;;;;;;6.30;5.10;;;;;;;;;;108023;1264;40875;-40
2023/07/12 06:12:32;;;;;;;6.10;5.00;;;;;;;;;;108015;1269;41862;-40
2023/07/12 06:15:27;;;;;;;6.40;5.10;;;;;;;;;;108028;1264;39562;-40
2023/07/12 06:18:25;;;;;;;7.70;5.40;;;;;;;;;;108087;1276;39569;-40
2023/07/12 06:21:08;;;;;;;6.80;5.00;;;;;;;;;;108087;1276;40623;-41
2023/07/12 06:24:07;;;;;;;6.40;5.00;;;;;;;;;;108043;1261;39846;-40
2023/07/12 06:26:47;;;;;;;6.40;5.20;;;;;;;;;;108037;1260;39718;-40
2023/07/12 06:29:46;;;;;;;6.30;5.00;;;;;;;;;;108031;1276;41864;-45
2023/07/12 06:32:41;;;;;;;6.60;5.10;;;;;;;;;;108036;1273;40462;-46
2023/07/12 06:35:35;;;;;;;6.20;4.90;;;;;;;;;;108035;1263;40952;-41
2023/07/12 06:38:09;;;;;;;7.00;5.30;;;;;;;;;;108089;1273;38419;-41
2023/07/12 06:40:47;;;;;;;6.70;5.00;;;;;;;;;;108084;1270;39729;-39
2023/07/12 06:43:31;;;;;;;7.20;5.20;;;;;;;;;;108078;1275;40760;-40
2023/07/12 06:46:27;;;;;;;6.30;5.00;;;;;;;;;;107992;1264;45266;-40
2023/07/12 06:49:25;;;;;;;6.60;5.10;;;;;;;;;;108033;1263;38233;-42
2023/07/12 06:52:14;;;;;;;7.70;5.30;;;;;;;;;;108058;1270;39014;-39
2023/07/12 06:54:47;;;;;;;6.60;5.10;;;;;;;;;;107794;1262;174998;-43
2023/07/12 06:57:22;;;;;;;6.90;5.10;;;;;;;;;;108034;1265;39561;-38
2023/07/12 06:59:59;;;;;;;6.80;5.50;;;;;;;;;;108080;1264;38607;-39
2023/07/12 07:02:33;;;;;;;6.50;5.50;;;;;;;;;;107970;1275;39964;-40
2023/07/12 07:05:08;;;;;;;7.00;5.20;;;;;;;;;;108004;1258;40976;-43
2023/07/12 07:07:41;;;;;;;7.00;5.10;;;;;;;;;;108092;1266;39931;-41
2023/07/12 07:10:18;;;;;;;6.60;5.20;;;;;;;;;;107997;1263;38621;-38
2023/07/12 07:13:02;;;;;;;6.50;5.50;;;;;;;;;;108010;1271;40052;-42
2023/07/12 07:15:57;;;;;;;6.90;5.10;;;;;;;;;;107907;1264;40503;-41
2023/07/12 07:18:53;;;;;;;6.90;5.20;;;;;;;;;;107836;1274;41041;-40
2023/07/12 07:21:50;;;;;;;6.70;4.90;;;;;;;;;;107884;1273;38651;-47
2023/07/12 07:24:46;;;;;;;6.10;5.00;;;;;;;;;;107885;1264;39845;-42
2023/07/12 07:27:23;;;;;;;6.60;5.30;;;;;;;;;;107979;1265;46229;-44
2023/07/12 07:30:23;;;;;;;7.10;5.40;;;;;;;;;;107852;1275;175418;-42
2023/07/12 07:33:17;;;;;;;7.30;5.40;;;;;;;;;;108006;1260;38597;-41
2023/07/12 07:36:14;;;;;;;6.10;5.20;;;;;;;;;;107930;1276;39553;-40
2023/07/12 07:39:11;;;;;;;6.40;5.20;;;;;;;;;;107889;1261;40623;-40
2023/07/12 07:42:07;;;;;;;6.50;5.50;;;;;;;;;;107921;1272;40739;-40
2023/07/12 07:45:01;;;;;;;6.70;5.70;;;;;;;;;;107894;1276;38422;-42
2023/07/12 07:47:56;;;;;;;6.60;5.20;;;;;;;;;;107976;1265;45854;-41
2023/07/12 07:50:52;;;;;;;6.20;5.10;;;;;;;;;;108014;1267;40660;-41
2023/07/12 07:53:47;;;;;;;7.40;5.30;;;;;;;;;;107874;1275;174911;-42
2023/07/12 07:56:24;;;;;;;6.80;5.30;;;;;;;;;;107964;1260;38466;-41
2023/07/12 07:59:20;;;;;;;7.30;5.50;;;;;;;;;;107930;1271;39709;-40
2023/07/12 08:02:15;;;;;;;6.50;5.20;;;;;;;;;;107931;1276;41764;-42
2023/07/12 08:05:11;;;;;;;6.50;5.00;;;;;;;;;;107925;1271;39737;-46
2023/07/12 08:08:07;;;;;;;6.70;5.30;;;;;;;;;;107977;1265;38607;-43
2023/07/12 08:11:02;;;;;;;6.70;5.10;;;;;;;;;;107986;1272;40193;-40
2023/07/12 08:13:56;;;;;;;6.30;5.00;;;;;;;;;;108044;1264;40351;-41
2023/07/12 08:16:52;;;;;;;6.60;5.30;;;;;;;;;;107959;1261;39683;-40
2023/07/12 08:19:50;;;;;;;6.50;5.20;;;;;;;;;;107962;1276;38494;-41
2023/07/12 08:22:44;;;;;;;6.50;5.10;;;;;;;;;;107994;1276;39556;-42
2023/07/12 08:25:38;;;;;;;6.10;5.20;;;;;;;;;;107986;1271;41598;-41
2023/07/12 08:28:33;;;;;;;5.90;4.90;;;;;;;;;;107977;1265;39777;-41
2023/07/12 08:31:24;;;;;;;6.30;5.20;;;;;;;;;;108036;1272;38745;-40
2023/07/12 08:34:00;;;;;;;6.90;5.20;;;;;;;;;;108045;1275;39602;-40
2023/07/12 08:36:54;;;;;;;5.70;4.80;;;;;;;;;;107973;1262;40818;-40
2023/07/12 08:39:29;;;;;;;6.80;5.20;;;;;;;;;;108019;1276;40590;-41
2023/07/12 08:42:26;;;;;;;5.50;4.90;;;;;;;;;;108016;1275;38861;-41
2023/07/12 08:45:28;;;;;;;5.90;4.70;;;;;;;;;;107975;1276;39785;-41
2023/07/12 08:48:27;;;;;;;6.30;4.90;;;;;;;;;;107985;1259;41921;-39
2023/07/12 08:51:28;;;;;;;5.90;4.70;;;;;;;;;;108028;1272;39532;-39
2023/07/12 08:54:33;;;;;;;5.90;4.60;;;;;;;;;;108005;1266;38460;-40
2023/07/12 08:57:31;;;;;;;6.10;4.50;;;;;;;;;;107866;1260;174927;-44
2023/07/12 09:00:32;;;;;;;6.20;4.60;;;;;;;;;;107980;1264;43168;-41
2023/07/12 09:03:27;;;;;;;5.70;4.60;;;;;;;;;;108003;1262;39927;-44
2023/07/12 09:06:21;;;;;;;6.20;4.50;;;;;;;;;;107886;1276;175405;-43
2023/07/12 09:09:16;;;;;;;6.00;4.40;;;;;;;;;;107977;1260;39933;-44
2023/07/12 09:11:53;;;;;;;5.90;4.30;;;;;;;;;;108010;1272;41948;-47
2023/07/12 09:14:28;;;;;;;5.80;4.40;;;;;;;;;;108025;1263;39522;-44
2023/07/12 09:17:35;;;;;;;5.80;4.40;;;;;;;;;;108013;1275;38787;-43
2023/07/12 09:20:32;;;;;;;6.10;4.30;;;;;;;;;;107989;1275;47134;-46
2023/07/12 09:23:26;;;;;;;6.40;4.30;;;;;;;;;;107984;1276;40500;-43
2023/07/12 09:26:26;;;;;;;5.60;4.20;;;;;;;;;;108028;1276;40066;-45
2023/07/12 09:29:27;;;;;;;6.00;4.20;;;;;;;;;;107948;1266;38841;-43
2023/07/12 09:32:29;;;;;;;4.80;3.80;;;;;;;;;;108034;1275;39901;-43
2023/07/12 09:35:38;;;;;;;5.80;4.10;;;;;;;;;;108022;1272;41327;-47
2023/07/12 09:38:37;;;;;;;5.90;4.10;;;;;;;;;;107981;1262;41339;-45
2023/07/12 09:41:32;;;;;;;5.80;4.40;;;;;;;;;;108004;1276;38315;-45
2023/07/12 09:44:27;;;;;;;5.30;4.10;;;;;;;;;;108020;1264;40111;-47
2023/07/12 09:47:08;;;;;;;5.30;4.10;;;;;;;;;;107985;1268;40719;-44
2023/07/12 09:50:06;;;;;;;5.60;4.30;;;;;;;;;;107943;1266;39638;-45
2023/07/12 09:53:01;;;;;;;5.30;4.20;;;;;;;;;;108045;1265;39629;-47
2023/07/12 09:56:01;;;;;;;5.30;4.10;;;;;;;;;;108009;1275;39714;-45
2023/07/12 09:59:06;;;;;;;5.70;4.20;;;;;;;;;;107992;1260;40871;-44
2023/07/12 10:01:56;;;;;;;5.50;4.10;;;;;;;;;;108007;1275;39674;-47
2023/07/12 10:05:01;;;;;;;6.30;4.30;;;;;;;;;;107963;1272;39733;-45
2023/07/12 10:08:04;;;;;;;5.50;4.00;;;;;;;;;;107970;1263;40391;-44
2023/07/12 10:11:06;;;;;;;5.30;4.20;;;;;;;;;;107909;1265;41667;-47
2023/07/12 10:14:07;;;;;;;5.70;4.30;;;;;;;;;;108029;1265;39621;-45
2023/07/12 10:17:05;;;;;;;5.90;4.40;;;;;;;;;;107994;1272;39767;-44
2023/07/12 10:20:04;;;;;;;5.90;4.30;;;;;;;;;;107955;1264;41610;-46
2023/07/12 10:23:00;;;;;;;5.20;4.20;;;;;;;;;;107897;1267;40636;-45
2023/07/12 10:26:06;;;;;;;6.00;4.40;;;;;;;;;;107877;1276;40103;-46
2023/07/12 10:29:11;;;;;;;5.60;4.10;;;;;;;;;;107894;1274;38636;-44
2023/07/12 10:32:18;;;;;;;5.40;4.50;;;;;;;;;;107903;1264;47336;-43
2023/07/12 10:35:25;;;;;;;5.60;4.50;;;;;;;;;;107948;1277;40774;-47
2023/07/12 10:38:22;;;;;;;5.40;4.40;;;;;;;;;;107957;1264;39704;-53
2023/07/12 10:41:23;;;;;;;6.40;4.40;;;;;;;;;;107954;1265;38507;-46
2023/07/12 10:44:23;;;;;;;5.50;4.20;;;;;;;;;;108012;1266;39788;-43
2023/07/12 10:47:21;;;;;;;6.00;4.30;;;;;;;;;;108011;1275;40388;-44
2023/07/12 10:50:31;;;;;;;6.00;4.50;;;;;;;;;;107992;1263;39821;-45
2023/07/12 10:53:29;;;;;;;6.60;4.80;;;;;;;;;;108032;1265;45076;-43
2023/07/12 10:56:25;;;;;;;5.00;4.10;;;;;;;;;;107993;1272;39963;-47
2023/07/12 10:59:50;;;;;;;5.40;4.00;;;;;;;;;;108014;1264;41039;-43
2023/07/12 11:02:50;;;;;;;5.20;4.00;;;;;;;;;;107947;1265;39997;-45
2023/07/12 11:05:59;;;;;;;5.40;4.20;;;;;;;;;;107980;1276;38635;-47
2023/07/12 11:09:10;;;;;;;5.60;4.30;;;;;;;;;;107951;1277;40160;-44
2023/07/12 11:12:12;;;;;;;5.30;3.80;;;;;;;;;;107920;1270;40742;-43
2023/07/12 11:15:27;;;;;;;6.20;4.40;;;;;;;;;;108016;1259;41083;-45
2023/07/12 11:18:37;;;;;;;5.30;4.20;;;;;;;;;;108047;1265;38844;-45
2023/07/12 11:21:51;;;;;;;5.40;4.00;;;;;;;;;;107969;1276;39879;-43
2023/07/12 11:24:56;;;;;;;;;;;;;;;;;;107969;1261;49149;-46
2023/07/12 11:28:02;;;;;;;5.60;4.60;;;;;;;;;;107942;1277;39343;-43
2023/07/12 11:31:26;;;;;;;5.80;4.40;;;;;;;;;;107856;1268;175312;-47
2023/07/12 11:34:16;;;;;;;5.80;4.50;;;;;;;;;;107956;1266;41114;-44
2023/07/12 11:37:26;;;;;;;5.80;4.30;;;;;;;;;;108020;1275;40894;-44
2023/07/12 11:40:25;;;;;;;5.30;4.30;;;;;;;;;;108008;1264;39840;-43
2023/07/12 11:43:39;;;;;;;6.00;4.50;;;;;;;;;;107874;1262;175330;-46
2023/07/12 11:46:36;;;;;;;6.30;5.20;;;;;;;;;;107943;1264;41387;-46
2023/07/12 11:49:35;;;;;;;5.50;4.70;;;;;;;;;;107934;1271;40915;-46
2023/07/12 11:52:30;;;;;;;5.70;4.60;;;;;;;;;;107815;1271;175348;-44
2023/07/12 11:55:30;;;;;;;6.30;4.80;;;;;;;;;;107941;1265;45761;-45
2023/07/12 11:58:29;;;;;;;6.50;4.90;;;;;;;;;;107956;1274;41681;-47
2023/07/12 12:01:26;;;;;;;6.50;5.20;;;;;;;;;;107969;1264;40970;-47
2023/07/12 12:04:27;;;;;;;6.40;5.20;;;;;;;;;;107938;1267;40028;-45
2023/07/12 12:07:45;;;;;;;6.50;5.10;;;;;;;;;;107905;1262;41837;-45
2023/07/12 12:10:45;;;;;;;6.40;5.00;;;;;;;;;;107917;1271;40541;-45
2023/07/12 12:13:46;;;;;;;6.40;5.10;;;;;;;;;;107854;1260;41243;-45
2023/07/12 12:16:50;;;;;;;7.00;5.30;;;;;;;;;;108022;1272;39878;-47
2023/07/12 12:19:49;;;;;;;6.00;5.20;;;;;;;;;;104005;1275;5373446;-45
2023/07/12 12:22:27;;;;;;;7.20;5.20;;;;;;;;;;108011;1272;40321;-44
2023/07/12 12:25:03;;;;;;;6.00;4.90;;;;;;;;;;107883;1264;42103;-50
2023/07/12 12:27:40;;;;;;;5.80;4.90;;;;;;;;;;107880;1266;39730;-44
2023/07/12 12:30:29;;;;;;;6.60;5.20;;;;;;;;;;107873;1274;38323;-48
2023/07/12 12:33:22;;;;;;;5.90;5.20;;;;;;;;;;107891;1274;40114;-43
2023/07/12 12:36:05;;;;;;;6.40;5.20;;;;;;;;;;107974;1265;40713;-43
2023/07/12 12:39:16;;;;;;;5.60;4.90;;;;;;;;;;108041;1266;40156;-44
2023/07/12 12:41:59;;;;;;;6.00;4.90;;;;;;;;;;108034;1276;39851;-44
2023/07/12 12:44:39;;;;;;;6.30;5.00;;;;;;;;;;107972;1261;40108;-45
2023/07/12 12:47:34;;;;;;;5.90;5.20;;;;;;;;;;107870;1276;40858;-50
2023/07/12 12:50:24;;;;;;;6.10;4.50;;;;;;;;;;107885;1260;40885;-44
2023/07/12 12:53:05;;;;;;;6.90;5.60;;;;;;;;;;107688;1265;38647;-37
2023/07/12 12:55:41;;;;;;;7.20;6.30;;;;;;;;;;107838;1266;40430;-42
2023/07/12 12:58:18;;;;;;;7.80;6.00;;;;;;;;;;107888;1267;40868;-42
2023/07/12 13:01:14;;;;;;;8.00;6.20;;;;;;;;;;107931;1260;39732;-42
2023/07/12 13:04:01;;;;;;;8.00;6.50;;;;;;;;;;107999;1266;38990;-37
2023/07/12 13:06:41;;;;;;;7.50;6.10;;;;;;;;;;108009;1264;39761;-41
2023/07/12 13:09:25;;;;;;;8.10;6.80;;;;;;;;;;107863;1267;40787;-39
2023/07/12 13:12:05;;;;;;;7.70;6.30;;;;;;;;;;107894;1274;40096;-40
2023/07/12 13:14:45;;;;;;;7.60;6.50;;;;;;;;;;107845;1276;39749;-38
2023/07/12 13:17:42;;;;;;;7.80;6.40;;;;;;;;;;108031;1273;46073;-39
2023/07/12 13:20:29;;;;;;;7.50;6.30;;;;;;;;;;108051;1263;42034;-39
2023/07/12 13:23:08;;;;;;;7.40;6.60;;;;;;;;;;107974;1267;41047;-40
2023/07/12 13:25:51;;;;;;;7.60;6.80;;;;;;;;;;107956;1267;38714;-40
2023/07/12 13:28:25;;;;;;;7.20;6.40;;;;;;;;;;107925;1274;40405;-37
2023/07/12 13:30:59;;;;;;;7.20;6.40;;;;;;;;;;107852;1276;41091;-38
2023/07/12 13:33:38;;;;;;;7.40;6.40;;;;;;;;;;107817;1267;39936;-39
2023/07/12 13:36:33;;;;;;;7.90;6.50;;;;;;;;;;107974;1260;38813;-38
2023/07/12 13:39:28;;;;;;;8.10;6.60;;;;;;;;;;107995;1276;39938;-38
2023/07/12 13:42:36;;;;;;;7.20;6.40;;;;;;;;;;107918;1264;41118;-42
2023/07/12 13:45:18;;;;;;;7.60;6.60;;;;;;;;;;107912;1276;40092;-40
2023/07/12 13:48:22;;;;;;;7.10;6.40;;;;;;;;;;107777;1274;44771;-38
2023/07/12 13:55:01;;;;;;;8.40;6.70;;;;;;;;;;107890;1270;41372;-35
2023/07/12 13:57:36;;;;;;;7.40;6.70;;;;;;;;;;107907;1261;40676;-37
2023/07/12 14:00:14;;;;;;;7.90;7.10;;;;;;;;;;107928;1260;38824;-37
2023/07/12 14:02:58;;;;;;;7.50;6.60;;;;;;;;;;107900;1267;40230;-37
2023/07/12 14:05:35;;;;;;;7.50;6.60;;;;;;;;;;107929;1268;41182;-38
2023/07/12 14:08:15;;;;;;;7.10;6.40;;;;;;;;;;107724;1267;175305;-37
2023/07/12 14:10:52;;;;;;;8.20;7.30;;;;;;;;;;107887;1266;39098;-36
2023/07/12 14:13:27;;;;;;;8.80;7.70;;;;;;;;;;107877;1272;40145;-37
2023/07/12 14:16:01;;;;;;;8.60;7.60;;;;;;;;;;107758;1273;175325;-39
2023/07/12 14:18:36;;;;;;;8.40;7.50;;;;;;;;;;107864;1270;39841;-37
2023/07/12 14:21:15;;;;;;;8.80;7.30;;;;;;;;;;107907;1267;39059;-36
2023/07/12 14:23:50;;;;;;;8.70;7.80;;;;;;;;;;107915;1272;40343;-37
2023/07/12 14:26:26;;;;;;;8.60;7.50;;;;;;;;;;107932;1276;40821;-40
2023/07/12 14:29:00;;;;;;;8.50;7.60;;;;;;;;;;107853;1266;45009;-41
2023/07/12 14:31:42;;;;;;;9.00;7.70;;;;;;;;;;107868;1276;38928;-38
2023/07/12 14:34:17;;;;;;;9.60;7.80;;;;;;;;;;107884;1273;40396;-39
2023/07/12 14:36:53;;;;;;;8.40;7.50;;;;;;;;;;107876;1265;42215;-36
2023/07/12 14:39:27;;;;;;;9.00;8.10;;;;;;;;;;107894;1261;46178;-39
2023/07/12 14:42:01;;;;;;;8.40;7.50;;;;;;;;;;107891;1265;38862;-37
2023/07/12 14:44:34;;;;;;;10.10;7.50;;;;;;;;;;107756;1267;177230;-36
2023/07/12 14:47:14;;;;;;;8.20;7.30;;;;;;;;;;107841;1276;41128;-36
2023/07/12 14:49:49;;;;;;;8.30;7.50;;;;;;;;;;107818;1274;47339;-37
2023/07/12 14:52:27;;;;;;;8.10;7.30;;;;;;;;;;107830;1261;38582;-36
2023/07/12 14:55:03;;;;;;;8.70;7.30;;;;;;;;;;107830;1274;40324;-37
2023/07/12 14:57:36;;;;;;;8.00;7.10;;;;;;;;;;107782;1263;43327;-37
2023/07/12 15:00:30;;;;;;;8.70;7.00;;;;;;;;;;107834;1268;41462;-37
2023/07/12 15:03:04;;;;;;;8.40;7.40;;;;;;;;;;107839;1278;39005;-36
2023/07/12 15:05:38;;;;;;;7.90;7.10;;;;;;;;;;107835;1268;42526;-37
2023/07/12 15:08:27;;;;;;;7.90;7.10;;;;;;;;;;107814;1260;40919;-37
2023/07/12 15:11:03;;;;;;;7.60;6.80;;;;;;;;;;107882;1270;41568;-37
2023/07/12 15:13:37;;;;;;;7.40;6.50;;;;;;;;;;107762;1276;176651;-37
2023/07/12 15:16:18;;;;;;;7.80;7.00;;;;;;;;;;107862;1271;41678;-37
2023/07/12 15:18:53;;;;;;;7.80;7.00;;;;;;;;;;107818;1265;40996;-38
2023/07/12 15:21:32;;;;;;;8.00;7.00;;;;;;;;;;107888;1273;40250;-37
2023/07/12 15:24:09;;;;;;;7.10;6.40;;;;;;;;;;107900;1273;39067;-37
2023/07/12 15:26:42;;;;;;;7.90;7.10;;;;;;;;;;107223;1273;909969;-37
2023/07/12 15:29:17;;;;;;;7.80;6.70;;;;;;;;;;107835;1267;41468;-37
2023/07/12 15:31:50;;;;;;;8.00;7.20;;;;;;;;;;107727;1276;193885;-37
2023/07/12 15:34:24;;;;;;;7.60;6.80;;;;;;;;;;107866;1273;38849;-39
2023/07/12 15:36:59;;;;;;;8.40;7.60;;;;;;;;;;107864;1274;40225;-36
2023/07/12 15:39:36;;;;;;;8.10;7.20;;;;;;;;;;107847;1267;42415;-37
2023/07/12 15:42:18;;;;;;;8.70;7.70;;;;;;;;;;107889;1275;40094;-38
2023/07/12 15:44:53;;;;;;;8.10;7.30;;;;;;;;;;107932;1271;38872;-37
2023/07/12 15:47:28;;;;;;;8.30;7.50;;;;;;;;;;107888;1277;41461;-37
2023/07/12 15:50:03;;;;;;;8.50;7.70;;;;;;;;;;107858;1264;41004;-37
2023/07/12 15:52:38;;;;;;;8.10;7.30;;;;;;;;;;107912;1269;41139;-36
2023/07/12 15:55:19;;;;;;;8.00;7.20;;;;;;;;;;107890;1276;38781;-36
2023/07/12 15:57:53;;;;;;;8.30;7.50;;;;;;;;;;107883;1272;40188;-37
2023/07/12 16:00:27;;;;;;;8.00;7.20;;;;;;;;;;107798;1267;41968;-37
2023/07/12 16:03:01;;;;;;;7.90;7.10;;;;;;;;;;107848;1262;41055;-37
2023/07/12 16:05:36;;;;;;;8.20;7.40;;;;;;;;;;107849;1277;40338;-37
2023/07/12 16:08:11;;;;;;;7.70;6.90;;;;;;;;;;107856;1276;40489;-38
2023/07/12 16:10:45;;;;;;;7.60;6.80;;;;;;;;;;107829;1265;42285;-37
2023/07/12 16:13:23;;;;;;;7.30;6.60;;;;;;;;;;107832;1272;40004;-37
2023/07/12 16:15:57;;;;;;;7.40;6.70;;;;;;;;;;107889;1276;40150;-37
2023/07/12 16:18:33;;;;;;;7.50;6.80;;;;;;;;;;107842;1264;41876;-37
2023/07/12 16:21:17;;;;;;;7.40;6.60;;;;;;;;;;107817;1265;40883;-36
2023/07/12 16:23:53;;;;;;;7.40;6.40;;;;;;;;;;107850;1266;39968;-35
2023/07/12 16:26:30;;;;;;;7.50;6.70;;;;;;;;;;107841;1270;40143;-38
2023/07/12 16:29:08;;;;;;;7.50;6.70;;;;;;;;;;107185;1273;893001;-38
2023/07/12 16:31:45;;;;;;;7.40;6.50;;;;;;;;;;107964;1264;46902;-38
2023/07/12 16:34:26;;;;;;;7.00;6.20;;;;;;;;;;107846;1276;40081;-37
2023/07/12 16:37:00;;;;;;;6.90;6.20;;;;;;;;;;107863;1269;39010;-37
2023/07/12 16:39:34;;;;;;;7.00;6.30;;;;;;;;;;107840;1273;40977;-37
2023/07/12 16:42:28;;;;;;;7.50;6.20;;;;;;;;;;107843;1274;48178;-37
2023/07/12 16:45:04;;;;;;;7.80;6.80;;;;;;;;;;107901;1270;41477;-37
2023/07/12 16:47:38;;;;;;;9.10;7.10;;;;;;;;;;107876;1269;40226;-37
2023/07/12 16:50:13;;;;;;;8.50;7.60;;;;;;;;;;107830;1260;40342;-37
2023/07/12 16:52:47;;;;;;;7.90;7.10;;;;;;;;;;107933;1270;41297;-37